Time;durP1;ratioP1;P1;durP2;ratioP2;P2;SDS_P1;SDS_P2;PMS_P1;PMS_P2;Temp;Humidity;BMP_temperature;BMP_pressure;BME280_temperature;BME280_humidity;BME280_pressure;Samples;Min_cycle;Max_cycle;Signal;HPM_P1;HPM_P2
2020/12/21 00:01:11;;;;;;;8.77;3.53;;;7.40;99.90;;;;;;5006815;28;20451;-75
2020/12/21 00:03:36;;;;;;;6.20;3.70;;;7.30;99.90;;;;;;4993084;28;20673;-75
2020/12/21 00:06:02;;;;;;;5.07;2.27;;;7.30;99.90;;;;;;5024732;28;20200;-75
2020/12/21 00:08:28;;;;;;;6.70;3.57;;;7.30;99.90;;;;;;5009374;28;20242;-75
2020/12/21 00:10:53;;;;;;;9.20;2.40;;;7.30;99.90;;;;;;5009325;28;20198;-75
2020/12/21 00:13:19;;;;;;;6.23;2.83;;;7.20;99.90;;;;;;5019910;28;20184;-75
2020/12/21 00:15:44;;;;;;;8.70;2.90;;;7.20;99.90;;;;;;4999495;28;20614;-75
2020/12/21 00:18:10;;;;;;;4.87;2.27;;;7.20;99.90;;;;;;5025293;28;20196;-75
2020/12/21 00:20:36;;;;;;;6.73;2.50;;;7.20;99.90;;;;;;5012129;28;20250;-74
2020/12/21 00:23:02;;;;;;;6.93;2.93;;;7.20;99.90;;;;;;5004985;28;20203;-74
2020/12/21 00:25:27;;;;;;;8.53;2.53;;;7.20;99.90;;;;;;5012160;28;20649;-75
2020/12/21 00:27:53;;;;;;;6.27;2.63;;;7.10;99.90;;;;;;5002717;28;20486;-75
2020/12/21 00:30:18;;;;;;;8.50;2.67;;;7.00;99.90;;;;;;5023478;28;20179;-75
2020/12/21 00:32:44;;;;;;;7.87;2.90;;;7.10;99.90;;;;;;5004534;28;20303;-75
2020/12/21 00:35:10;;;;;;;3.90;2.17;;;7.10;99.90;;;;;;5004272;28;20172;-75
2020/12/21 00:37:35;;;;;;;5.63;2.50;;;7.10;99.90;;;;;;5005325;28;20252;-75
2020/12/21 00:40:01;;;;;;;12.17;3.17;;;7.10;99.90;;;;;;5007991;28;20176;-74
2020/12/21 00:42:26;;;;;;;9.77;2.87;;;7.00;99.90;;;;;;5010788;28;20246;-74
2020/12/21 00:44:52;;;;;;;8.23;2.70;;;6.90;99.90;;;;;;5011213;28;20183;-74
2020/12/21 00:47:18;;;;;;;7.23;3.00;;;6.80;99.90;;;;;;5026221;28;20196;-74
2020/12/21 00:49:43;;;;;;;7.23;2.50;;;6.80;99.90;;;;;;5008265;28;20662;-74
2020/12/21 00:52:09;;;;;;;8.83;2.67;;;6.70;99.90;;;;;;5002693;28;20192;-74
2020/12/21 00:54:34;;;;;;;3.60;1.87;;;6.60;99.90;;;;;;5025618;28;20642;-74
2020/12/21 00:57:00;;;;;;;6.30;2.07;;;6.60;99.90;;;;;;5011423;28;20176;-74
2020/12/21 00:59:26;;;;;;;5.70;2.80;;;6.60;99.90;;;;;;5010622;28;20231;-75
2020/12/21 01:01:52;;;;;;;4.97;2.80;;;6.60;99.90;;;;;;5011687;28;20447;-75
2020/12/21 01:04:17;;;;;;;5.60;2.47;;;6.50;99.90;;;;;;5008521;28;20312;-75
2020/12/21 01:06:43;;;;;;;2.43;2.20;;;6.50;99.90;;;;;;5013343;28;20214;-75
2020/12/21 01:09:11;;;;;;;5.07;2.70;;;6.60;99.90;;;;;;5014398;28;20198;-75
2020/12/21 01:11:38;;;;;;;4.57;2.53;;;6.50;99.90;;;;;;5013688;28;20863;-75
2020/12/21 01:14:04;;;;;;;2.70;1.83;;;6.40;99.90;;;;;;5015070;28;20950;-75
2020/12/21 01:16:29;;;;;;;11.00;3.27;;;6.40;99.90;;;;;;5012559;28;20439;-75
2020/12/21 01:18:55;;;;;;;4.37;1.93;;;6.30;99.90;;;;;;5015654;28;20647;-75
2020/12/21 01:21:26;;;;;;;5.30;2.53;;;6.30;99.90;;;;;;5029949;28;20736;-75
2020/12/21 01:23:53;;;;;;;12.43;2.90;;;6.20;99.90;;;;;;5013931;28;20204;-76
2020/12/21 01:26:18;;;;;;;8.83;3.07;;;6.20;99.90;;;;;;5013493;28;20505;-75
2020/12/21 01:28:44;;;;;;;6.30;2.90;;;6.20;99.90;;;;;;5014701;28;20470;-75
2020/12/21 01:31:09;;;;;;;4.23;2.10;;;6.20;99.90;;;;;;5012946;28;20673;-75
2020/12/21 01:33:35;;;;;;;7.20;3.47;;;6.10;99.90;;;;;;5014704;28;20174;-75
2020/12/21 01:36:01;;;;;;;7.50;2.67;;;6.10;99.90;;;;;;5014043;28;20177;-75
2020/12/21 01:38:26;;;;;;;9.23;3.90;;;6.10;99.90;;;;;;5013527;28;20177;-74
2020/12/21 01:40:52;;;;;;;11.03;3.23;;;6.10;99.90;;;;;;5013153;28;20318;-74
2020/12/21 01:43:17;;;;;;;3.50;2.73;;;6.00;99.90;;;;;;5013346;28;20230;-75
2020/12/21 01:45:43;;;;;;;9.50;3.70;;;6.10;99.90;;;;;;5035730;28;20181;-74
2020/12/21 01:48:09;;;;;;;6.70;2.80;;;6.10;99.90;;;;;;5005238;28;20206;-74
2020/12/21 01:50:35;;;;;;;7.93;4.07;;;6.10;99.90;;;;;;5010442;28;20216;-74
2020/12/21 01:53:01;;;;;;;6.07;3.20;;;6.20;99.90;;;;;;5010570;28;20434;-74
2020/12/21 01:55:29;;;;;;;9.00;3.03;;;6.20;99.90;;;;;;5025217;28;20179;-75
2020/12/21 01:57:55;;;;;;;8.20;3.40;;;6.20;99.90;;;;;;5014120;28;20427;-75
2020/12/21 02:00:21;;;;;;;11.90;3.90;;;6.10;99.90;;;;;;5013449;28;20427;-76
2020/12/21 02:02:47;;;;;;;6.90;3.07;;;6.20;99.90;;;;;;5014623;28;20514;-75
2020/12/21 02:05:12;;;;;;;7.10;2.90;;;6.30;99.90;;;;;;5012993;28;20638;-74
2020/12/21 02:07:38;;;;;;;16.83;4.70;;;6.20;99.90;;;;;;5014537;28;20250;-75
2020/12/21 02:10:04;;;;;;;4.13;2.50;;;6.20;99.90;;;;;;5014377;28;20242;-75
2020/12/21 02:12:29;;;;;;;13.70;3.20;;;6.30;99.90;;;;;;5014418;28;20164;-75
2020/12/21 02:14:55;;;;;;;7.60;3.00;;;6.20;99.90;;;;;;5006489;28;20235;-75
2020/12/21 02:17:20;;;;;;;7.37;3.30;;;6.10;99.90;;;;;;5014350;28;20215;-75
2020/12/21 02:19:46;;;;;;;8.80;2.93;;;6.10;99.90;;;;;;5013873;28;20176;-75
2020/12/21 02:22:12;;;;;;;7.50;3.00;;;6.00;99.90;;;;;;5028993;28;20289;-75
2020/12/21 02:24:41;;;;;;;9.57;2.70;;;6.00;99.90;;;;;;5013862;28;20426;-75
2020/12/21 02:27:07;;;;;;;10.27;2.97;;;5.90;99.90;;;;;;5014268;28;20207;-75
2020/12/21 02:29:32;;;;;;;5.77;3.13;;;5.90;99.90;;;;;;5013100;28;20415;-75
2020/12/21 02:31:59;;;;;;;7.90;2.60;;;5.90;99.90;;;;;;5013767;28;20447;-75
2020/12/21 02:34:26;;;;;;;9.10;3.10;;;5.80;99.90;;;;;;5014141;28;20160;-75
2020/12/21 02:36:53;;;;;;;8.63;2.80;;;5.90;99.90;;;;;;5012928;28;20450;-75
2020/12/21 02:39:18;;;;;;;6.27;2.83;;;5.90;99.90;;;;;;5013469;28;20435;-75
2020/12/21 02:41:44;;;;;;;13.73;3.13;;;5.90;99.90;;;;;;5013716;28;20521;-74
2020/12/21 02:44:09;;;;;;;6.27;3.00;;;6.00;99.90;;;;;;5013642;28;20246;-75
2020/12/21 02:46:35;;;;;;;9.30;3.27;;;6.00;99.90;;;;;;5013942;28;20281;-74
2020/12/21 02:49:01;;;;;;;5.43;2.20;;;6.00;99.90;;;;;;5013283;28;20199;-74
2020/12/21 02:51:26;;;;;;;12.60;3.13;;;6.00;99.90;;;;;;5013292;28;20553;-74
2020/12/21 02:53:52;;;;;;;8.23;3.70;;;6.10;99.90;;;;;;5013431;28;20231;-75
2020/12/21 02:56:17;;;;;;;9.80;2.60;;;6.10;99.90;;;;;;5013509;28;20176;-75
2020/12/21 02:58:43;;;;;;;10.50;3.70;;;6.00;99.90;;;;;;5013726;28;20164;-75
2020/12/21 03:01:09;;;;;;;7.63;3.67;;;6.10;99.90;;;;;;5012857;28;20191;-74
2020/12/21 03:03:34;;;;;;;6.00;3.00;;;6.00;99.90;;;;;;5013594;28;20211;-74
2020/12/21 03:06:00;;;;;;;8.20;2.40;;;6.10;99.90;;;;;;5001945;28;20180;-74
2020/12/21 03:08:25;;;;;;;8.63;3.20;;;6.10;99.90;;;;;;5005450;28;20191;-75
2020/12/21 03:10:51;;;;;;;6.50;3.27;;;6.10;99.90;;;;;;5013338;28;20258;-74
2020/12/21 03:13:16;;;;;;;4.40;3.00;;;6.00;99.90;;;;;;5013296;28;20176;-75
2020/12/21 03:15:42;;;;;;;10.80;2.90;;;6.00;99.90;;;;;;5013348;28;20172;-75
2020/12/21 03:18:08;;;;;;;5.70;2.90;;;5.90;99.90;;;;;;5012976;28;20660;-75
2020/12/21 03:20:33;;;;;;;12.53;2.97;;;6.00;99.90;;;;;;5013127;28;20265;-75
2020/12/21 03:22:59;;;;;;;3.87;2.23;;;6.00;99.90;;;;;;5012120;28;20187;-75
2020/12/21 03:25:24;;;;;;;8.57;2.03;;;5.90;99.90;;;;;;5013251;28;20282;-75
2020/12/21 03:27:50;;;;;;;5.70;2.80;;;5.80;99.90;;;;;;5012898;28;20192;-75
2020/12/21 03:30:16;;;;;;;7.90;2.97;;;5.70;99.90;;;;;;5011779;28;20176;-75
2020/12/21 03:32:42;;;;;;;5.30;2.97;;;5.50;99.90;;;;;;5012516;28;20164;-75
2020/12/21 03:35:07;;;;;;;6.83;3.00;;;5.40;99.90;;;;;;5012456;28;20183;-75
2020/12/21 03:37:36;;;;;;;5.13;2.87;;;5.30;99.90;;;;;;5012571;28;20574;-75
2020/12/21 03:40:06;;;;;;;7.40;3.10;;;5.10;99.90;;;;;;5001644;28;20256;-75
2020/12/21 03:42:33;;;;;;;6.80;3.43;;;5.00;99.90;;;;;;5011927;28;20481;-74
2020/12/21 03:44:58;;;;;;;16.03;3.57;;;5.10;99.90;;;;;;5012926;28;20426;-75
2020/12/21 03:47:24;;;;;;;8.00;3.23;;;5.00;99.90;;;;;;5012763;28;20455;-75
2020/12/21 03:49:50;;;;;;;12.03;3.63;;;5.10;99.90;;;;;;5011713;28;20176;-75
2020/12/21 03:52:15;;;;;;;11.40;3.40;;;5.10;99.90;;;;;;5011661;28;20214;-74
2020/12/21 03:54:41;;;;;;;8.97;3.20;;;5.10;99.90;;;;;;5012049;28;20172;-75
2020/12/21 03:57:07;;;;;;;5.97;2.40;;;5.10;99.90;;;;;;5043752;28;20263;-74
2020/12/21 03:59:32;;;;;;;4.40;2.87;;;5.20;99.90;;;;;;5012685;28;20172;-75
2020/12/21 04:01:58;;;;;;;11.80;3.57;;;5.20;99.90;;;;;;5008156;28;20196;-75
2020/12/21 04:04:24;;;;;;;5.87;2.53;;;5.20;99.90;;;;;;5044186;28;20175;-75
2020/12/21 04:06:50;;;;;;;2.30;2.10;;;5.20;99.90;;;;;;5012540;28;20665;-75
2020/12/21 04:09:16;;;;;;;7.93;2.60;;;5.30;99.90;;;;;;5012625;28;20500;-74
2020/12/21 04:11:41;;;;;;;4.70;2.20;;;5.30;99.90;;;;;;5012133;28;20430;-75
2020/12/21 04:14:07;;;;;;;5.00;2.50;;;5.30;99.90;;;;;;5000100;28;20184;-75
2020/12/21 04:16:33;;;;;;;8.77;3.50;;;5.30;99.90;;;;;;4992825;28;20252;-75
2020/12/21 04:18:58;;;;;;;8.73;3.53;;;5.40;99.90;;;;;;5009511;28;20783;-75
2020/12/21 04:21:24;;;;;;;3.50;2.30;;;5.40;99.90;;;;;;5010641;28;20199;-74
2020/12/21 04:23:50;;;;;;;2.90;2.13;;;5.30;99.90;;;;;;5012489;28;20411;-74
2020/12/21 04:26:15;;;;;;;7.37;2.87;;;5.40;99.90;;;;;;5012219;28;20661;-74
2020/12/21 04:28:41;;;;;;;5.10;2.43;;;5.40;99.90;;;;;;5012131;28;20639;-74
2020/12/21 04:31:07;;;;;;;5.07;2.00;;;5.40;99.90;;;;;;5026817;28;20211;-75
2020/12/21 04:33:34;;;;;;;7.40;2.13;;;5.40;99.90;;;;;;5012070;28;20259;-75
2020/12/21 04:35:59;;;;;;;7.20;2.73;;;5.40;99.90;;;;;;5011034;28;20435;-76
2020/12/21 04:38:25;;;;;;;7.40;2.77;;;5.40;99.90;;;;;;5011985;28;20477;-74
2020/12/21 04:41:00;;;;;;;5.73;2.30;;;5.50;99.90;;;;;;5012984;28;20605;-75
2020/12/21 04:43:25;;;;;;;7.83;3.27;;;5.60;99.90;;;;;;5015964;28;20472;-74
2020/12/21 04:45:55;;;;;;;8.37;3.40;;;5.60;99.90;;;;;;5015932;28;20419;-75
2020/12/21 04:48:24;;;;;;;3.23;2.40;;;5.50;99.90;;;;;;5015318;28;20215;-75
2020/12/21 04:50:54;;;;;;;9.13;2.67;;;5.50;99.90;;;;;;5015990;28;20423;-75
2020/12/21 04:53:21;;;;;;;4.43;3.03;;;5.40;99.90;;;;;;5014400;28;20506;-74
2020/12/21 04:55:47;;;;;;;7.67;2.50;;;5.40;99.90;;;;;;5016275;28;20781;-75
2020/12/21 04:58:13;;;;;;;11.03;4.40;;;5.30;99.90;;;;;;5015812;28;20426;-74
2020/12/21 05:00:38;;;;;;;6.10;3.00;;;5.20;99.90;;;;;;5015202;28;20504;-74
2020/12/21 05:03:05;;;;;;;5.10;2.43;;;5.30;99.90;;;;;;5015963;28;20179;-74
2020/12/21 05:05:35;;;;;;;7.53;3.50;;;5.20;99.90;;;;;;5000413;28;20189;-74
2020/12/21 05:08:11;;;;;;;13.90;3.50;;;5.30;99.90;;;;;;5003731;28;20458;-74
2020/12/21 05:10:39;;;;;;;5.40;3.10;;;5.20;99.90;;;;;;5015443;28;20422;-74
2020/12/21 05:13:05;;;;;;;10.30;3.50;;;5.30;99.90;;;;;;5015169;28;20513;-74
2020/12/21 05:15:32;;;;;;;14.10;3.03;;;5.10;99.90;;;;;;5013289;28;20438;-74
2020/12/21 05:18:08;;;;;;;2.97;2.67;;;5.20;99.90;;;;;;5014731;28;20461;-74
2020/12/21 05:20:35;;;;;;;6.83;3.27;;;5.30;99.90;;;;;;5015323;28;20431;-74
2020/12/21 05:23:02;;;;;;;13.03;2.97;;;5.20;99.90;;;;;;5015024;28;20418;-75
2020/12/21 05:25:28;;;;;;;6.87;3.33;;;5.30;99.90;;;;;;5014877;28;20458;-75
2020/12/21 05:27:53;;;;;;;6.37;3.17;;;5.20;99.90;;;;;;5008635;28;20463;-75
2020/12/21 05:30:19;;;;;;;7.83;3.73;;;5.10;99.90;;;;;;5010545;28;20688;-76
2020/12/21 05:32:45;;;;;;;13.87;3.67;;;5.10;99.90;;;;;;5013862;28;20212;-75
2020/12/21 05:35:11;;;;;;;10.93;3.07;;;5.10;99.90;;;;;;5011460;28;20176;-75
2020/12/21 05:37:39;;;;;;;10.33;3.53;;;5.10;99.90;;;;;;5014854;28;20713;-74
2020/12/21 05:40:07;;;;;;;5.40;3.17;;;5.10;99.90;;;;;;5015332;28;20838;-74
2020/12/21 05:42:34;;;;;;;7.50;3.33;;;5.20;99.90;;;;;;5011926;28;20868;-75
2020/12/21 05:45:06;;;;;;;19.23;3.60;;;5.20;99.90;;;;;;5013274;28;20489;-74
2020/12/21 05:47:31;;;;;;;7.00;3.90;;;5.20;99.90;;;;;;5014514;28;20458;-74
2020/12/21 05:50:04;;;;;;;11.00;2.70;;;5.30;99.90;;;;;;5014875;28;20423;-74
2020/12/21 05:52:32;;;;;;;5.67;2.73;;;5.40;99.90;;;;;;5013227;28;20617;-74
2020/12/21 05:55:11;;;;;;;8.30;2.70;;;5.50;99.90;;;;;;5011123;28;20526;-75
2020/12/21 05:57:41;;;;;;;8.97;2.80;;;5.50;99.90;;;;;;5013411;28;20435;-74
2020/12/21 06:00:10;;;;;;;7.33;3.40;;;5.60;99.90;;;;;;5014175;28;20438;-75
2020/12/21 06:02:36;;;;;;;9.20;3.90;;;5.70;99.90;;;;;;5013785;28;20940;-75
2020/12/21 06:05:08;;;;;;;18.33;4.50;;;5.80;99.90;;;;;;5014030;28;20439;-75
2020/12/21 06:07:35;;;;;;;8.73;3.30;;;5.90;99.90;;;;;;5014075;28;20968;-75
2020/12/21 06:10:05;;;;;;;4.60;2.90;;;5.90;99.90;;;;;;5014420;28;20423;-74
2020/12/21 06:12:36;;;;;;;8.13;3.67;;;5.90;99.90;;;;;;5013132;28;20456;-74
2020/12/21 06:15:07;;;;;;;9.70;3.40;;;5.80;99.90;;;;;;5013261;28;20427;-74
2020/12/21 06:17:35;;;;;;;10.10;3.83;;;5.70;99.90;;;;;;5014295;28;20430;-74
2020/12/21 06:20:05;;;;;;;10.20;3.90;;;5.60;99.90;;;;;;5014553;28;20407;-74
2020/12/21 06:22:31;;;;;;;4.40;3.33;;;5.60;99.90;;;;;;5013425;28;20492;-74
2020/12/21 06:24:57;;;;;;;10.10;4.10;;;5.50;99.90;;;;;;5013036;28;20435;-74
2020/12/21 06:27:22;;;;;;;7.10;4.30;;;5.50;99.90;;;;;;5013271;28;20262;-73
2020/12/21 06:29:58;;;;;;;8.07;3.87;;;5.50;99.90;;;;;;5013160;28;20543;-73
2020/12/21 06:32:32;;;;;;;7.57;4.87;;;5.50;99.90;;;;;;5013836;28;20184;-73
2020/12/21 06:34:59;;;;;;;8.40;4.13;;;5.50;99.90;;;;;;4998203;28;20422;-74
2020/12/21 06:37:24;;;;;;;10.60;4.00;;;5.50;99.90;;;;;;5013803;28;20419;-74
2020/12/21 06:40:06;;;;;;;17.83;4.73;;;5.50;99.90;;;;;;5014161;28;20419;-74
2020/12/21 06:42:32;;;;;;;5.50;3.57;;;5.50;99.90;;;;;;5013492;28;20310;-74
2020/12/21 06:44:58;;;;;;;5.30;3.63;;;5.60;99.90;;;;;;5013714;28;20470;-73
2020/12/21 06:47:26;;;;;;;10.83;3.33;;;5.60;99.90;;;;;;5010059;28;20499;-75
2020/12/21 06:49:52;;;;;;;6.80;3.50;;;5.60;99.90;;;;;;5013952;28;20399;-74
2020/12/21 06:52:19;;;;;;;5.93;3.73;;;5.60;99.90;;;;;;5013438;28;20446;-75
2020/12/21 06:54:45;;;;;;;18.00;4.57;;;5.60;99.90;;;;;;5013777;28;20506;-75
2020/12/21 06:57:11;;;;;;;7.23;3.27;;;5.60;99.90;;;;;;5020473;28;20502;-74
2020/12/21 06:59:37;;;;;;;16.20;4.30;;;5.60;99.90;;;;;;5013736;28;20173;-74
2020/12/21 07:02:04;;;;;;;8.67;4.00;;;5.60;99.90;;;;;;5013494;28;20458;-74
2020/12/21 07:04:32;;;;;;;9.53;3.27;;;5.60;99.90;;;;;;5012779;28;20425;-74
2020/12/21 07:07:00;;;;;;;8.03;3.30;;;5.60;99.90;;;;;;5013300;28;20477;-74
2020/12/21 07:09:44;;;;;;;6.93;3.60;;;5.60;99.90;;;;;;5013030;28;20932;-74
2020/12/21 07:12:10;;;;;;;5.33;2.90;;;5.70;99.90;;;;;;5011295;28;20443;-74
2020/12/21 07:14:40;;;;;;;7.50;3.13;;;5.70;99.90;;;;;;5013450;28;20403;-74
2020/12/21 07:17:13;;;;;;;8.93;3.40;;;5.70;99.90;;;;;;5013288;28;20418;-74
2020/12/21 07:19:42;;;;;;;4.80;3.20;;;5.70;99.90;;;;;;5013359;28;20959;-74
2020/12/21 07:22:09;;;;;;;10.80;4.17;;;5.80;99.90;;;;;;5013160;28;20497;-74
2020/12/21 07:24:39;;;;;;;10.30;3.50;;;5.80;99.90;;;;;;5013255;28;20423;-73
2020/12/21 07:27:05;;;;;;;9.97;3.53;;;5.80;99.90;;;;;;5013287;28;20450;-74
2020/12/21 07:29:34;;;;;;;8.80;3.50;;;5.80;99.90;;;;;;5013195;28;20399;-74
2020/12/21 07:32:00;;;;;;;8.83;3.70;;;5.80;99.90;;;;;;5012599;28;20483;-74
2020/12/21 07:34:27;;;;;;;7.57;4.30;;;5.80;99.90;;;;;;5011910;28;20538;-74
2020/12/21 07:36:53;;;;;;;7.33;3.17;;;5.80;99.90;;;;;;5013072;28;20412;-74
2020/12/21 07:39:19;;;;;;;11.03;3.77;;;5.80;99.90;;;;;;5013139;28;20502;-74
2020/12/21 07:41:47;;;;;;;6.73;3.60;;;5.90;99.90;;;;;;5011533;28;20203;-74
2020/12/21 07:44:19;;;;;;;8.03;4.20;;;5.80;99.90;;;;;;5012745;28;20969;-74
2020/12/21 07:47:03;;;;;;;9.97;4.10;;;5.90;99.90;;;;;;5012895;28;20443;-74
2020/12/21 07:49:36;;;;;;;11.73;3.57;;;5.90;99.90;;;;;;5012884;28;20427;-74
2020/12/21 07:52:06;;;;;;;10.03;4.80;;;5.90;99.90;;;;;;5012750;28;20453;-74
2020/12/21 07:54:37;;;;;;;10.50;3.87;;;5.90;99.90;;;;;;5012496;28;20461;-74
2020/12/21 07:57:04;;;;;;;10.30;4.23;;;5.90;99.90;;;;;;5012594;28;20419;-74
2020/12/21 07:59:30;;;;;;;8.17;3.70;;;6.00;99.90;;;;;;5012451;28;20426;-74
2020/12/21 08:02:04;;;;;;;15.13;4.17;;;6.00;99.90;;;;;;5012446;28;20859;-74
2020/12/21 08:04:30;;;;;;;11.50;4.23;;;6.00;99.90;;;;;;5012726;28;20383;-74
2020/12/21 08:07:10;;;;;;;5.57;4.20;;;6.00;99.90;;;;;;5012537;28;20447;-74
2020/12/21 08:09:37;;;;;;;7.63;5.00;;;6.00;99.90;;;;;;5012595;28;20979;-74
2020/12/21 08:12:13;;;;;;;9.70;4.17;;;6.00;99.90;;;;;;5010824;28;20501;-74
2020/12/21 08:14:40;;;;;;;6.90;4.67;;;6.10;99.90;;;;;;5019671;28;20432;-74
2020/12/21 08:17:13;;;;;;;7.57;4.27;;;6.10;99.90;;;;;;5020081;28;20461;-74
2020/12/21 08:19:49;;;;;;;13.27;4.87;;;6.10;99.90;;;;;;5010656;28;20434;-74
2020/12/21 08:22:22;;;;;;;5.60;4.10;;;6.10;99.90;;;;;;5012218;28;20529;-74
2020/12/21 08:25:11;;;;;;;8.77;4.10;;;6.10;99.90;;;;;;5011851;28;20928;-74
2020/12/21 08:27:58;;;;;;;6.87;3.53;;;6.20;99.90;;;;;;5010929;28;20498;-74
2020/12/21 08:30:24;;;;;;;11.23;5.00;;;6.20;99.90;;;;;;4992589;28;20392;-74
2020/12/21 08:32:52;;;;;;;11.90;4.57;;;6.20;99.90;;;;;;4992794;28;20726;-74
2020/12/21 08:35:29;;;;;;;9.50;4.37;;;6.30;99.90;;;;;;5024242;28;20269;-74
2020/12/21 08:38:17;;;;;;;12.27;5.57;;;6.30;99.90;;;;;;4992637;28;20468;-74
2020/12/21 08:40:53;;;;;;;10.20;4.97;;;6.30;99.90;;;;;;4992387;28;20451;-74
2020/12/21 08:43:19;;;;;;;10.30;4.30;;;6.30;99.90;;;;;;5006919;28;20406;-74
2020/12/21 08:45:45;;;;;;;14.87;4.80;;;6.40;99.90;;;;;;5012073;28;20465;-74
2020/12/21 08:48:10;;;;;;;13.37;5.13;;;6.30;99.90;;;;;;5011826;28;20199;-74
2020/12/21 08:50:36;;;;;;;9.97;4.30;;;6.40;99.90;;;;;;5027207;28;20279;-74
2020/12/21 08:53:01;;;;;;;13.63;3.90;;;6.50;99.90;;;;;;5012038;28;20230;-74
2020/12/21 08:55:27;;;;;;;6.30;3.63;;;6.50;99.90;;;;;;5011917;28;20183;-74
2020/12/21 08:57:52;;;;;;;10.60;4.50;;;6.60;99.90;;;;;;5011721;28;20263;-74
2020/12/21 09:00:18;;;;;;;9.37;3.80;;;6.60;99.90;;;;;;5021603;28;20179;-74
2020/12/21 09:02:44;;;;;;;7.83;3.80;;;6.70;99.90;;;;;;5011548;28;20195;-74
2020/12/21 09:05:09;;;;;;;9.13;3.70;;;6.70;99.90;;;;;;5012254;28;20243;-74
2020/12/21 09:07:35;;;;;;;17.73;4.60;;;6.70;99.90;;;;;;5011882;28;20192;-74
2020/12/21 09:10:02;;;;;;;8.77;3.97;;;6.80;99.90;;;;;;5011589;28;20246;-74
2020/12/21 09:12:27;;;;;;;9.17;4.63;;;6.80;99.90;;;;;;5011605;28;20443;-74
2020/12/21 09:14:53;;;;;;;8.00;3.23;;;6.80;99.90;;;;;;5011886;28;20418;-74
2020/12/21 09:17:19;;;;;;;12.03;3.70;;;6.80;99.90;;;;;;5011580;28;20543;-74
2020/12/21 09:19:44;;;;;;;5.97;3.67;;;6.90;99.90;;;;;;5011751;28;20250;-74
2020/12/21 09:22:10;;;;;;;8.80;4.43;;;6.90;99.90;;;;;;5011611;28;20267;-74
2020/12/21 09:24:35;;;;;;;15.90;4.20;;;6.90;99.90;;;;;;5011781;28;20587;-74
2020/12/21 09:27:01;;;;;;;11.90;3.90;;;6.90;99.90;;;;;;5028024;28;20277;-74
2020/12/21 09:29:27;;;;;;;17.03;8.97;;;7.00;99.90;;;;;;5015501;28;20176;-74
2020/12/21 09:31:53;;;;;;;20.60;10.23;;;7.00;99.90;;;;;;5015101;28;20567;-74
2020/12/21 09:34:19;;;;;;;20.33;6.50;;;7.10;99.90;;;;;;5025505;28;20684;-74
2020/12/21 09:36:44;;;;;;;13.47;5.10;;;7.10;99.90;;;;;;5015366;28;20411;-74
2020/12/21 09:39:13;;;;;;;10.70;5.40;;;7.10;99.90;;;;;;5015344;28;20412;-74
2020/12/21 09:41:39;;;;;;;9.40;3.93;;;7.20;99.90;;;;;;5031969;28;20199;-74
2020/12/21 09:44:04;;;;;;;12.30;3.80;;;7.20;99.90;;;;;;5031087;28;20406;-74
2020/12/21 09:46:30;;;;;;;11.80;4.53;;;7.20;99.90;;;;;;5031321;28;20652;-74
2020/12/21 09:48:58;;;;;;;9.40;4.20;;;7.20;99.90;;;;;;5024456;28;20778;-74
2020/12/21 09:51:23;;;;;;;9.37;4.07;;;7.30;99.90;;;;;;5014227;28;20184;-74
2020/12/21 09:53:49;;;;;;;7.87;4.30;;;7.30;99.90;;;;;;5029550;28;20406;-74
2020/12/21 09:56:15;;;;;;;9.60;3.50;;;7.40;99.90;;;;;;5029559;28;20557;-74
2020/12/21 09:58:44;;;;;;;13.53;5.30;;;7.40;99.90;;;;;;5020703;28;20182;-74
2020/12/21 10:01:09;;;;;;;13.70;3.50;;;7.50;99.90;;;;;;5014051;28;20815;-74
2020/12/21 10:03:39;;;;;;;10.57;3.63;;;7.60;99.90;;;;;;5014067;28;20411;-74
2020/12/21 10:06:07;;;;;;;5.50;3.50;;;7.60;99.90;;;;;;5029160;28;20184;-74
2020/12/21 10:08:33;;;;;;;10.03;4.50;;;7.60;99.90;;;;;;5014061;28;20407;-74
2020/12/21 10:10:58;;;;;;;8.27;3.43;;;7.60;99.90;;;;;;5013944;28;20441;-73
2020/12/21 10:13:24;;;;;;;12.57;3.17;;;7.60;99.90;;;;;;5014338;28;20215;-73
2020/12/21 10:15:50;;;;;;;7.27;3.33;;;7.60;99.90;;;;;;5014331;28;20177;-74
2020/12/21 10:18:15;;;;;;;9.40;3.60;;;7.70;99.90;;;;;;5028948;28;20195;-73
2020/12/21 10:20:43;;;;;;;15.50;4.50;;;7.70;99.90;;;;;;5013750;28;20580;-74
2020/12/21 10:23:09;;;;;;;15.23;3.97;;;7.70;99.90;;;;;;5013830;28;20180;-74
2020/12/21 10:25:34;;;;;;;5.27;3.10;;;7.70;99.90;;;;;;5029608;28;20480;-74
2020/12/21 10:28:00;;;;;;;6.50;3.40;;;7.80;99.90;;;;;;5048904;28;20200;-74
2020/12/21 10:30:25;;;;;;;9.80;3.60;;;7.80;99.90;;;;;;5033142;28;20167;-74
2020/12/21 10:32:51;;;;;;;9.17;3.73;;;7.80;99.90;;;;;;5013430;28;20573;-74
2020/12/21 10:35:16;;;;;;;12.87;4.80;;;7.90;99.90;;;;;;5013783;28;20221;-74
2020/12/21 10:37:42;;;;;;;16.03;4.47;;;7.90;99.90;;;;;;5012812;28;20180;-74
2020/12/21 10:40:08;;;;;;;6.27;3.67;;;7.90;99.90;;;;;;5012999;28;20176;-74
2020/12/21 10:42:33;;;;;;;9.00;4.47;;;8.00;99.90;;;;;;5013511;28;20176;-74
2020/12/21 10:44:59;;;;;;;7.33;3.70;;;8.00;99.90;;;;;;5012299;28;20203;-74
2020/12/21 10:47:25;;;;;;;8.77;4.63;;;8.10;99.90;;;;;;5013327;28;20196;-75
2020/12/21 10:49:50;;;;;;;5.67;3.00;;;8.10;99.90;;;;;;5013829;28;20196;-74
2020/12/21 10:52:16;;;;;;;11.40;3.70;;;8.10;99.90;;;;;;5028932;28;20188;-75
2020/12/21 10:54:42;;;;;;;8.63;3.27;;;8.10;99.90;;;;;;5021375;28;20168;-74
2020/12/21 10:57:07;;;;;;;9.80;3.90;;;8.10;99.90;;;;;;5017348;28;20218;-75
2020/12/21 10:59:33;;;;;;;8.20;3.93;;;8.20;99.90;;;;;;4998914;28;20204;-75
2020/12/21 11:01:59;;;;;;;15.83;4.60;;;8.20;99.90;;;;;;5017882;28;20657;-74
2020/12/21 11:04:25;;;;;;;15.90;4.30;;;8.20;99.90;;;;;;5013235;28;20446;-75
2020/12/21 11:06:50;;;;;;;6.20;4.17;;;8.20;99.90;;;;;;5012877;28;20295;-74
2020/12/21 11:09:16;;;;;;;5.60;2.90;;;8.20;99.90;;;;;;5013230;28;20195;-74
2020/12/21 11:11:41;;;;;;;11.73;4.50;;;8.20;99.90;;;;;;5028140;28;20232;-73
2020/12/21 11:14:08;;;;;;;9.43;3.97;;;8.20;99.90;;;;;;5013153;28;20177;-74
2020/12/21 11:16:34;;;;;;;8.43;3.40;;;8.20;99.90;;;;;;5011522;28;20191;-74
2020/12/21 11:19:00;;;;;;;13.67;3.30;;;8.20;99.90;;;;;;5013176;28;20791;-75
2020/12/21 11:21:25;;;;;;;8.67;5.60;;;8.20;99.90;;;;;;5011714;28;20435;-74
2020/12/21 11:23:51;;;;;;;5.27;3.50;;;8.20;99.90;;;;;;5012996;28;20176;-75
2020/12/21 11:26:19;;;;;;;13.20;4.33;;;8.30;99.90;;;;;;5012923;28;20184;-74
2020/12/21 11:28:45;;;;;;;7.00;3.90;;;8.30;99.90;;;;;;5013071;28;20171;-75
2020/12/21 11:31:14;;;;;;;7.60;4.30;;;8.40;99.90;;;;;;5012871;28;20935;-74
2020/12/21 11:33:40;;;;;;;6.60;4.07;;;8.40;99.90;;;;;;5012827;28;20399;-75
2020/12/21 11:36:05;;;;;;;7.60;3.50;;;8.40;99.90;;;;;;5012814;28;20411;-75
2020/12/21 11:38:31;;;;;;;6.77;3.80;;;8.40;99.90;;;;;;5012860;28;20169;-75
2020/12/21 11:40:57;;;;;;;10.73;4.20;;;8.50;99.90;;;;;;5012452;28;20603;-75
2020/12/21 11:43:22;;;;;;;11.30;4.53;;;8.40;99.90;;;;;;5012786;28;20172;-75
2020/12/21 11:45:50;;;;;;;5.87;4.60;;;8.40;99.90;;;;;;5016631;28;20172;-75
2020/12/21 11:48:16;;;;;;;13.70;4.17;;;8.40;99.90;;;;;;5044280;28;20215;-75
2020/12/21 11:50:42;;;;;;;8.23;4.90;;;8.50;99.90;;;;;;5012042;28;20920;-75
2020/12/21 11:53:08;;;;;;;8.50;4.23;;;8.50;99.90;;;;;;5012516;28;20168;-75
2020/12/21 11:55:33;;;;;;;7.60;4.60;;;8.40;99.90;;;;;;5012437;28;20404;-75
2020/12/21 11:57:59;;;;;;;10.80;5.90;;;8.40;99.90;;;;;;5030223;28;20215;-75
2020/12/21 12:00:24;;;;;;;10.97;5.00;;;8.50;99.90;;;;;;5031998;28;20226;-75
2020/12/21 12:02:50;;;;;;;11.40;5.27;;;8.50;99.90;;;;;;5032291;28;20144;-75
2020/12/21 12:05:16;;;;;;;8.70;5.30;;;8.40;99.90;;;;;;5031687;28;20182;-75
2020/12/21 12:07:41;;;;;;;10.67;5.50;;;8.50;99.90;;;;;;5032021;28;20272;-75
2020/12/21 12:10:07;;;;;;;13.20;5.70;;;8.50;99.90;;;;;;5019574;28;20180;-75
2020/12/21 12:12:34;;;;;;;10.73;5.30;;;8.40;99.90;;;;;;5012577;28;20190;-75
2020/12/21 12:14:59;;;;;;;17.30;6.00;;;8.50;99.90;;;;;;5012329;28;20435;-75
2020/12/21 12:17:25;;;;;;;7.70;5.03;;;8.50;99.90;;;;;;5012071;28;20478;-75
2020/12/21 12:19:50;;;;;;;9.50;5.67;;;8.40;99.90;;;;;;5011912;28;20169;-75
2020/12/21 12:22:17;;;;;;;11.30;5.90;;;8.40;99.90;;;;;;5028627;28;20283;-75
2020/12/21 12:24:42;;;;;;;12.47;6.20;;;8.40;99.90;;;;;;5032149;28;20171;-75
2020/12/21 12:27:08;;;;;;;10.20;6.30;;;8.30;99.90;;;;;;5018738;28;20505;-75
2020/12/21 12:29:34;;;;;;;9.93;6.13;;;8.30;99.90;;;;;;5012903;28;20169;-75
2020/12/21 12:32:00;;;;;;;12.23;7.20;;;8.20;99.90;;;;;;5012152;28;20240;-75
2020/12/21 12:34:25;;;;;;;10.23;7.47;;;8.20;99.90;;;;;;5014411;28;20622;-75
2020/12/21 12:36:51;;;;;;;15.87;8.07;;;8.20;99.90;;;;;;5017715;28;20169;-75
2020/12/21 12:39:17;;;;;;;12.40;6.17;;;8.20;99.90;;;;;;5016242;28;20180;-76
2020/12/21 12:41:43;;;;;;;12.07;7.03;;;8.10;99.90;;;;;;5015217;28;20559;-77
2020/12/21 12:44:09;;;;;;;16.30;6.50;;;8.20;99.90;;;;;;5014451;28;20728;-77
2020/12/21 12:46:35;;;;;;;10.93;7.20;;;8.10;99.90;;;;;;5014911;28;20970;-76
2020/12/21 12:49:02;;;;;;;9.33;7.10;;;8.10;99.90;;;;;;5014627;28;20423;-76
2020/12/21 12:51:28;;;;;;;9.10;6.40;;;8.20;99.90;;;;;;5013356;28;20591;-75